createdAt,value
2019-04-27T00:02:26.463Z,13.77
2019-04-27T00:05:03.132Z,13.81
2019-04-27T00:07:51.419Z,13.81
2019-04-27T00:10:50.393Z,13.77
2019-04-27T00:13:20.459Z,13.80
2019-04-27T00:16:19.338Z,13.81
2019-04-27T00:19:17.535Z,13.79
2019-04-27T00:22:03.102Z,13.84
2019-04-27T00:24:33.547Z,13.74
2019-04-27T00:27:06.748Z,13.81
2019-04-27T00:29:36.893Z,13.79
2019-04-27T00:32:07.163Z,13.81
2019-04-27T00:34:37.421Z,13.83
2019-04-27T00:37:20.159Z,13.87
2019-04-27T00:39:58.759Z,13.88
2019-04-27T00:42:28.838Z,13.88
2019-04-27T00:44:59.849Z,13.93
2019-04-27T00:47:30.001Z,13.91
2019-04-27T00:50:00.050Z,13.92
2019-04-27T00:52:30.174Z,13.91
2019-04-27T00:55:00.283Z,13.91
2019-04-27T00:57:47.721Z,13.84
2019-04-27T01:00:44.011Z,13.86
2019-04-27T01:03:23.164Z,13.83
2019-04-27T01:05:53.219Z,13.87
2019-04-27T01:08:23.266Z,13.82
2019-04-27T01:10:53.783Z,13.87
2019-04-27T01:13:24.843Z,13.84
2019-04-27T01:15:55.697Z,13.91
2019-04-27T01:18:25.752Z,13.96
2019-04-27T01:20:55.913Z,13.97
2019-04-27T01:23:25.971Z,13.96
2019-04-27T01:26:10.697Z,13.91
2019-04-27T01:28:45.917Z,13.92
2019-04-27T01:31:15.976Z,13.86
2019-04-27T01:33:46.062Z,13.84
2019-04-27T01:36:16.144Z,13.79
2019-04-27T01:38:46.188Z,13.80
2019-04-27T01:41:16.255Z,13.77
2019-04-27T01:43:46.312Z,13.81
2019-04-27T01:46:16.338Z,13.84
2019-04-27T01:48:46.394Z,13.83
2019-04-27T01:51:16.474Z,13.74
2019-04-27T01:53:46.551Z,13.49
2019-04-27T01:56:16.566Z,13.39
2019-04-27T01:58:46.610Z,13.18
2019-04-27T02:01:48.949Z,13.16
2019-04-27T02:04:47.046Z,13.13
2019-04-27T02:07:19.082Z,13.12
2019-04-27T02:09:48.946Z,13.14
2019-04-27T02:12:19.315Z,13.19
2019-04-27T02:14:49.361Z,13.13
2019-04-27T02:17:19.447Z,13.24
2019-04-27T02:19:49.538Z,13.29
2019-04-27T02:22:19.637Z,13.31
2019-04-27T02:24:50.025Z,13.23
2019-04-27T02:27:21.733Z,13.18
2019-04-27T02:30:11.780Z,13.20
2019-04-27T02:33:06.725Z,13.22
2019-04-27T02:35:39.107Z,13.20
2019-04-27T02:38:10.071Z,13.22
2019-04-27T02:40:55.822Z,13.07
2019-04-27T02:43:44.812Z,13.06
2019-04-27T02:46:14.844Z,13.05
2019-04-27T02:48:55.972Z,13.02
2019-04-27T02:51:22.419Z,13.13
2019-04-27T02:54:00.175Z,13.19
2019-04-27T02:56:30.861Z,13.18
2019-04-27T02:59:00.951Z,13.20
2019-04-27T03:01:34.883Z,13.21
2019-04-27T03:04:04.977Z,13.10
2019-04-27T03:06:35.038Z,13.20
2019-04-27T03:09:10.213Z,13.20
2019-04-27T03:11:39.713Z,13.23
2019-04-27T03:14:35.844Z,13.21
2019-04-27T03:17:22.399Z,13.28
2019-04-27T03:19:56.686Z,13.17
2019-04-27T03:22:45.773Z,13.24
2019-04-27T03:25:35.623Z,13.25
2019-04-27T03:28:10.969Z,13.21
2019-04-27T03:30:42.867Z,13.27
2019-04-27T03:33:13.473Z,13.17
2019-04-27T03:35:44.203Z,13.16
2019-04-27T03:38:14.414Z,13.08
2019-04-27T03:40:44.487Z,13.18
2019-04-27T03:43:21.218Z,13.19
2019-04-27T03:45:52.493Z,13.26
2019-04-27T03:48:22.753Z,13.12
2019-04-27T03:51:09.988Z,13.12
2019-04-27T03:53:49.732Z,13.13
2019-04-27T03:56:39.548Z,13.20
2019-04-27T03:59:29.511Z,13.23
2019-04-27T04:02:02.405Z,13.28
2019-04-27T04:04:32.914Z,13.15
2019-04-27T04:07:13.575Z,13.10
2019-04-27T04:09:43.628Z,13.22
2019-04-27T04:12:31.294Z,13.21
2019-04-27T04:15:01.365Z,13.13
2019-04-27T04:17:31.410Z,12.94
2019-04-27T04:20:02.386Z,13.06
2019-04-27T04:22:33.479Z,13.14
2019-04-27T04:25:03.650Z,13.17
2019-04-27T04:27:33.752Z,13.17
2019-04-27T04:30:04.107Z,13.19
2019-04-27T04:32:34.208Z,12.97
2019-04-27T04:35:21.125Z,13.09
2019-04-27T04:37:52.694Z,13.19
2019-04-27T04:40:30.656Z,13.16
2019-04-27T04:43:06.981Z,13.13
2019-04-27T04:45:59.632Z,13.15
2019-04-27T04:48:30.336Z,13.13
2019-04-27T04:51:00.376Z,13.21
2019-04-27T04:53:30.405Z,13.20
2019-04-27T04:56:00.537Z,13.21
2019-04-27T04:58:31.319Z,13.19
2019-04-27T05:01:02.023Z,13.24
2019-04-27T05:03:32.278Z,13.22
2019-04-27T05:06:02.361Z,13.27
2019-04-27T05:08:32.444Z,13.33
2019-04-27T05:11:02.609Z,13.32
2019-04-27T05:13:32.653Z,13.35
2019-04-27T05:16:02.709Z,13.30
2019-04-27T05:18:32.750Z,13.35
2019-04-27T05:21:11.885Z,13.38
2019-04-27T05:23:41.929Z,13.36
2019-04-27T05:26:11.982Z,13.32
2019-04-27T05:28:42.050Z,13.32
2019-04-27T05:31:12.059Z,13.33
2019-04-27T05:33:42.096Z,13.36
2019-04-27T05:36:12.162Z,13.31
2019-04-27T05:38:45.920Z,13.23
2019-04-27T05:41:14.692Z,13.31
2019-04-27T05:44:07.568Z,13.30
2019-04-27T05:47:01.262Z,13.32
2019-04-27T05:49:40.439Z,13.17
2019-04-27T05:52:29.065Z,13.15
2019-04-27T05:54:59.302Z,13.16
2019-04-27T05:57:31.293Z,13.18
2019-04-27T06:00:02.307Z,13.17
2019-04-27T06:02:33.159Z,13.18
2019-04-27T06:05:04.513Z,13.24
2019-04-27T06:07:34.674Z,13.28
2019-04-27T06:10:04.990Z,13.23
2019-04-27T06:12:35.065Z,13.29
2019-04-27T06:15:05.885Z,13.34
2019-04-27T06:17:35.930Z,13.20
2019-04-27T06:20:06.634Z,13.25
2019-04-27T06:22:36.681Z,13.23
2019-04-27T06:25:06.967Z,13.29
2019-04-27T06:27:37.046Z,13.29
2019-04-27T06:30:09.214Z,13.33
2019-04-27T06:32:39.645Z,13.29
2019-04-27T06:35:12.299Z,13.27
2019-04-27T06:37:41.646Z,13.30
2019-04-27T06:40:11.761Z,13.29
2019-04-27T06:42:41.822Z,13.33
2019-04-27T06:45:11.889Z,13.36
2019-04-27T06:47:41.919Z,13.37
2019-04-27T06:50:12.044Z,13.42
2019-04-27T06:52:43.161Z,13.38
2019-04-27T06:55:13.278Z,13.31
2019-04-27T06:57:43.304Z,13.37
2019-04-27T07:00:13.378Z,13.41
2019-04-27T07:02:43.402Z,13.51
2019-04-27T07:05:13.474Z,13.51
2019-04-27T07:07:43.497Z,13.49
2019-04-27T07:10:13.529Z,13.66
2019-04-27T07:12:43.554Z,13.76
2019-04-27T07:15:15.504Z,13.84
2019-04-27T07:17:45.385Z,13.89
2019-04-27T07:20:15.454Z,13.92
2019-04-27T07:22:45.522Z,14.01
2019-04-27T07:25:15.581Z,14.01
2019-04-27T07:27:45.803Z,13.83
2019-04-27T07:30:15.886Z,13.98
2019-04-27T07:32:45.930Z,14.09
2019-04-27T07:35:15.988Z,14.17
2019-04-27T07:37:46.051Z,14.20
2019-04-27T07:40:16.112Z,14.20
2019-04-27T07:42:49.641Z,14.20
2019-04-27T07:45:25.598Z,14.19
2019-04-27T07:47:55.738Z,14.21
2019-04-27T07:50:25.786Z,14.20
2019-04-27T07:52:55.821Z,14.19
2019-04-27T07:55:25.887Z,14.13
2019-04-27T07:57:55.905Z,14.10
2019-04-27T08:00:25.922Z,14.20
2019-04-27T08:02:55.944Z,14.21
2019-04-27T08:05:25.957Z,14.32
2019-04-27T08:07:56.975Z,14.42
2019-04-27T08:10:27.021Z,14.47
2019-04-27T08:12:57.063Z,14.40
2019-04-27T08:15:28.999Z,14.48
2019-04-27T08:17:59.284Z,14.49
2019-04-27T08:20:29.515Z,14.48
2019-04-27T08:23:01.325Z,14.49
2019-04-27T08:25:31.539Z,14.39
2019-04-27T08:28:11.630Z,14.44
2019-04-27T08:30:56.504Z,14.37
2019-04-27T08:33:26.566Z,14.40
2019-04-27T08:35:59.135Z,14.39
2019-04-27T08:38:29.625Z,14.35
2019-04-27T08:40:59.702Z,14.29
2019-04-27T08:43:29.762Z,14.32
2019-04-27T08:46:00.346Z,14.34
2019-04-27T08:48:34.702Z,14.36
2019-04-27T08:51:03.006Z,14.35
2019-04-27T08:53:33.094Z,14.22
2019-04-27T08:56:03.166Z,14.35
2019-04-27T08:58:33.218Z,14.39
2019-04-27T09:01:03.420Z,14.52
2019-04-27T09:03:33.572Z,14.53
2019-04-27T09:06:07.064Z,14.65
2019-04-27T09:08:56.780Z,14.80
2019-04-27T09:11:39.938Z,14.93
2019-04-27T09:14:34.744Z,14.96
2019-04-27T09:17:13.781Z,15.06
2019-04-27T09:20:09.532Z,14.98
2019-04-27T09:22:39.733Z,14.98
2019-04-27T09:25:10.774Z,15.13
2019-04-27T09:27:41.224Z,15.24
2019-04-27T09:30:11.274Z,15.35
2019-04-27T09:32:41.397Z,15.54
2019-04-27T09:35:11.442Z,15.71
2019-04-27T09:37:41.507Z,15.77
2019-04-27T09:40:13.901Z,15.82
2019-04-27T09:42:43.941Z,15.91
2019-04-27T09:45:15.864Z,16.05
2019-04-27T09:47:46.815Z,16.07
2019-04-27T09:50:17.258Z,15.96
2019-04-27T09:52:47.298Z,16.00
2019-04-27T09:55:17.409Z,16.02
2019-04-27T09:57:47.433Z,15.95
2019-04-27T10:00:17.526Z,15.95
2019-04-27T10:02:47.570Z,15.89
2019-04-27T10:05:18.754Z,15.71
2019-04-27T10:07:48.791Z,15.71
2019-04-27T10:10:18.893Z,15.75
2019-04-27T10:12:48.941Z,15.74
2019-04-27T10:15:19.058Z,15.85
2019-04-27T10:17:49.157Z,16.07
2019-04-27T10:20:20.012Z,16.42
2019-04-27T10:22:50.145Z,16.42
2019-04-27T10:25:27.710Z,16.55
2019-04-27T10:28:00.778Z,16.63
2019-04-27T10:30:31.575Z,16.63
2019-04-27T10:33:01.596Z,16.60
2019-04-27T10:35:31.634Z,16.59
2019-04-27T10:38:01.753Z,16.68
2019-04-27T10:40:31.787Z,16.52
2019-04-27T10:43:01.853Z,16.67
2019-04-27T10:45:32.983Z,17.04
2019-04-27T10:48:03.118Z,17.04
2019-04-27T10:50:33.166Z,17.15
2019-04-27T10:53:03.209Z,17.20
2019-04-27T10:55:33.249Z,17.16
2019-04-27T10:58:03.436Z,17.24
2019-04-27T11:00:38.714Z,17.38
2019-04-27T11:03:08.826Z,17.49
2019-04-27T11:06:10.058Z,17.60
2019-04-27T11:08:40.112Z,17.58
2019-04-27T11:11:10.142Z,17.59
2019-04-27T11:13:40.234Z,17.51
2019-04-27T11:16:10.278Z,17.51
2019-04-27T11:18:40.382Z,17.49
2019-04-27T11:21:10.385Z,17.46
2019-04-27T11:23:40.424Z,17.41
2019-04-27T11:26:11.215Z,17.32
2019-04-27T11:28:42.752Z,17.21
2019-04-27T11:31:12.806Z,17.18
2019-04-27T11:33:42.876Z,17.27
2019-04-27T11:36:49.772Z,17.23
2019-04-27T11:39:21.240Z,17.21
2019-04-27T11:41:51.279Z,17.18
2019-04-27T11:44:21.307Z,17.11
2019-04-27T11:46:51.349Z,16.96
2019-04-27T11:49:21.442Z,16.92
2019-04-27T11:51:51.542Z,16.85
2019-04-27T11:54:21.649Z,16.74
2019-04-27T11:56:51.694Z,16.66
2019-04-27T11:59:22.705Z,16.51
2019-04-27T12:01:55.944Z,16.47
2019-04-27T12:04:26.374Z,16.54
2019-04-27T12:06:57.364Z,16.69
2019-04-27T12:09:27.403Z,16.71
2019-04-27T12:12:12.609Z,16.73
2019-04-27T12:14:29.316Z,16.75
2019-04-27T12:16:59.339Z,16.83
2019-04-27T12:19:29.358Z,16.89
2019-04-27T12:21:59.466Z,16.91
2019-04-27T12:24:29.558Z,16.81
2019-04-27T12:27:15.914Z,16.81
2019-04-27T12:30:26.061Z,16.62
2019-04-27T12:32:56.644Z,16.51
2019-04-27T12:35:27.708Z,16.53
2019-04-27T12:37:57.794Z,16.72
2019-04-27T12:40:27.862Z,16.97
2019-04-27T12:42:58.965Z,17.21
2019-04-27T12:45:30.137Z,17.43
2019-04-27T12:48:00.482Z,17.63
2019-04-27T12:50:30.483Z,17.85
2019-04-27T12:53:03.177Z,18.13
2019-04-27T12:56:11.227Z,18.20
2019-04-27T12:59:00.539Z,18.13
2019-04-27T13:01:30.659Z,17.89
2019-04-27T13:04:00.826Z,17.61
2019-04-27T13:06:31.811Z,17.61
2019-04-27T13:09:02.718Z,17.48
2019-04-27T13:11:34.152Z,17.43
2019-04-27T13:14:06.101Z,17.39
2019-04-27T13:16:35.995Z,17.30
2019-04-27T13:19:06.239Z,17.20
2019-04-27T13:21:36.641Z,17.18
2019-04-27T13:24:07.205Z,17.10
2019-04-27T13:26:38.118Z,17.10
2019-04-27T13:29:08.350Z,17.02
2019-04-27T13:31:38.402Z,17.06
2019-04-27T13:34:08.454Z,17.12
2019-04-27T13:36:38.496Z,17.36
2019-04-27T13:39:08.626Z,17.62
2019-04-27T13:41:40.114Z,17.85
2019-04-27T13:44:10.214Z,18.07
2019-04-27T13:46:57.693Z,18.21
2019-04-27T13:49:46.732Z,18.37
2019-04-27T13:52:26.779Z,18.49
2019-04-27T13:54:57.267Z,18.58
2019-04-27T13:57:27.313Z,18.56
2019-04-27T13:59:57.327Z,18.54
2019-04-27T14:02:32.298Z,18.47
2019-04-27T14:04:59.126Z,18.52
2019-04-27T14:07:29.174Z,18.64
2019-04-27T14:10:00.005Z,18.76
2019-04-27T14:12:30.101Z,18.71
2019-04-27T14:15:00.142Z,18.75
2019-04-27T14:17:30.156Z,18.68
2019-04-27T14:20:00.212Z,18.61
2019-04-27T14:22:31.587Z,18.56
2019-04-27T14:25:01.750Z,18.50
2019-04-27T14:27:40.667Z,18.54
2019-04-27T14:30:12.494Z,18.43
2019-04-27T14:32:42.587Z,18.18
2019-04-27T14:35:12.701Z,18.03
2019-04-27T14:37:42.719Z,17.85
2019-04-27T14:40:13.210Z,17.70
2019-04-27T14:42:43.368Z,17.50
2019-04-27T14:45:13.447Z,17.46
2019-04-27T14:47:43.505Z,17.49
2019-04-27T14:50:13.563Z,17.51
2019-04-27T14:52:43.586Z,17.53
2019-04-27T14:55:13.643Z,17.51
2019-04-27T14:57:43.649Z,17.41
2019-04-27T15:00:15.398Z,17.25
2019-04-27T15:02:45.449Z,17.15
2019-04-27T15:05:15.468Z,17.11
2019-04-27T15:07:45.490Z,17.07
2019-04-27T15:10:16.108Z,16.98
2019-04-27T15:12:46.401Z,16.94
2019-04-27T15:15:16.418Z,16.89
2019-04-27T15:17:46.467Z,16.88
2019-04-27T15:20:27.222Z,16.92
2019-04-27T15:22:56.885Z,17.02
2019-04-27T15:25:26.321Z,17.08
2019-04-27T15:28:01.270Z,17.22
2019-04-27T15:30:47.465Z,17.32
2019-04-27T15:33:46.825Z,17.47
2019-04-27T15:36:36.025Z,17.64
2019-04-27T15:39:11.788Z,17.76
2019-04-27T15:41:48.520Z,17.74
2019-04-27T15:44:18.819Z,17.72
2019-04-27T15:46:49.943Z,17.67
2019-04-27T15:49:20.017Z,17.72
2019-04-27T15:51:50.653Z,17.83
2019-04-27T15:54:22.326Z,17.76
2019-04-27T15:56:53.470Z,17.76
2019-04-27T15:59:30.875Z,17.76
2019-04-27T16:01:59.862Z,17.84
2019-04-27T16:04:29.908Z,17.87
2019-04-27T16:07:00.568Z,17.79
2019-04-27T16:09:30.660Z,17.71
2019-04-27T16:12:09.973Z,17.62
2019-04-27T16:14:32.483Z,17.46
2019-04-27T16:17:03.070Z,17.36
2019-04-27T16:19:34.213Z,17.33
2019-04-27T16:22:04.252Z,17.22
2019-04-27T16:24:34.293Z,17.15
2019-04-27T16:27:04.314Z,17.17
2019-04-27T16:29:34.377Z,17.25
2019-04-27T16:32:09.532Z,17.43
2019-04-27T16:34:37.865Z,17.43
2019-04-27T16:37:09.809Z,17.34
2019-04-27T16:39:45.378Z,17.36
2019-04-27T16:42:14.286Z,17.39
2019-04-27T16:44:44.347Z,17.33
2019-04-27T16:47:18.846Z,17.34
2019-04-27T16:49:48.447Z,17.40
2019-04-27T16:52:19.275Z,17.40
2019-04-27T16:54:56.956Z,17.39
2019-04-27T16:57:24.214Z,17.40
2019-04-27T16:59:57.523Z,17.37
2019-04-27T17:02:26.137Z,17.31
2019-04-27T17:04:56.206Z,17.26
2019-04-27T17:07:30.190Z,17.22
2019-04-27T17:09:59.472Z,17.27
2019-04-27T17:12:34.351Z,17.24
2019-04-27T17:15:18.989Z,17.18
2019-04-27T17:18:35.798Z,17.11
2019-04-27T17:21:18.374Z,17.05
2019-04-27T17:23:38.841Z,17.05
2019-04-27T17:26:20.680Z,17.07
2019-04-27T17:28:59.172Z,17.00
2019-04-27T17:31:31.734Z,16.97
2019-04-27T17:34:02.254Z,16.89
2019-04-27T17:36:32.299Z,16.84
2019-04-27T17:39:02.327Z,16.80
2019-04-27T17:41:33.970Z,16.79
2019-04-27T17:44:05.050Z,16.70
2019-04-27T17:46:35.066Z,16.67
2019-04-27T17:49:05.115Z,16.59
2019-04-27T17:51:39.552Z,16.58
2019-04-27T17:54:08.021Z,16.56
2019-04-27T17:56:48.345Z,16.50
2019-04-27T17:59:16.715Z,16.45
2019-04-27T18:01:42.050Z,16.38
2019-04-27T18:04:12.086Z,16.34
2019-04-27T18:06:42.660Z,16.25
2019-04-27T18:09:18.813Z,16.20
2019-04-27T18:11:50.382Z,16.10
2019-04-27T18:14:20.526Z,16.09
2019-04-27T18:16:50.547Z,16.07
2019-04-27T18:19:28.702Z,16.08
2019-04-27T18:22:05.709Z,15.96
2019-04-27T18:24:41.277Z,15.93
2019-04-27T18:27:19.465Z,15.93
2019-04-27T18:29:49.497Z,15.83
2019-04-27T18:32:23.594Z,15.89
2019-04-27T18:34:51.286Z,15.92
2019-04-27T18:37:24.709Z,15.94
2019-04-27T18:39:54.862Z,15.95
2019-04-27T18:42:29.714Z,15.88
2019-04-27T18:44:56.541Z,15.84
2019-04-27T18:47:26.545Z,15.89
2019-04-27T18:50:10.997Z,15.78
2019-04-27T18:52:47.265Z,15.85
2019-04-27T18:55:16.712Z,15.83
2019-04-27T18:57:45.874Z,15.83
2019-04-27T19:00:17.736Z,15.84
2019-04-27T19:02:50.041Z,15.81
2019-04-27T19:05:19.606Z,15.78
2019-04-27T19:07:49.698Z,15.72
2019-04-27T19:10:19.766Z,15.59
2019-04-27T19:12:49.800Z,15.59
2019-04-27T19:15:19.927Z,15.59
2019-04-27T19:17:50.004Z,15.56
2019-04-27T19:20:20.190Z,15.51
2019-04-27T19:22:50.315Z,15.46
2019-04-27T19:25:32.325Z,15.46
2019-04-27T19:28:33.147Z,15.44
2019-04-27T19:31:08.306Z,15.42
2019-04-27T19:33:39.602Z,15.38
2019-04-27T19:36:09.900Z,15.36
2019-04-27T19:38:40.061Z,15.26
2019-04-27T19:41:10.124Z,15.26
2019-04-27T19:43:40.334Z,15.27
2019-04-27T19:46:10.473Z,15.26
2019-04-27T19:48:40.631Z,15.21
2019-04-27T19:51:10.675Z,15.23
2019-04-27T19:53:40.775Z,15.19
2019-04-27T19:56:10.786Z,15.18
2019-04-27T19:58:45.136Z,15.14
2019-04-27T20:01:43.339Z,15.09
2019-04-27T20:04:21.185Z,15.14
2019-04-27T20:06:51.229Z,15.12
2019-04-27T20:09:44.161Z,15.12
2019-04-27T20:12:14.248Z,15.08
2019-04-27T20:14:56.638Z,15.08
2019-04-27T20:17:27.528Z,15.12
2019-04-27T20:19:57.628Z,15.08
2019-04-27T20:22:27.645Z,15.11
2019-04-27T20:24:57.749Z,15.13
2019-04-27T20:27:27.807Z,15.11
2019-04-27T20:29:57.866Z,15.07
2019-04-27T20:32:27.911Z,15.12
2019-04-27T20:34:58.081Z,15.06
2019-04-27T20:37:28.274Z,15.08
2019-04-27T20:39:58.323Z,15.05
2019-04-27T20:42:28.462Z,15.05
2019-04-27T20:44:58.772Z,15.01
2019-04-27T20:47:28.882Z,14.99
2019-04-27T20:49:59.030Z,14.98
2019-04-27T20:52:51.117Z,14.94
2019-04-27T20:55:21.515Z,14.93
2019-04-27T20:57:59.576Z,14.89
2019-04-27T21:00:24.770Z,14.89
2019-04-27T21:03:02.074Z,14.83
2019-04-27T21:05:51.086Z,14.75
2019-04-27T21:08:21.982Z,14.75
2019-04-27T21:10:52.101Z,14.73
2019-04-27T21:13:22.246Z,14.69
2019-04-27T21:15:52.308Z,14.71
2019-04-27T21:18:22.405Z,14.71
2019-04-27T21:20:52.442Z,14.70
2019-04-27T21:23:22.583Z,14.73
2019-04-27T21:25:53.594Z,14.72
2019-04-27T21:28:23.764Z,14.68
2019-04-27T21:30:53.784Z,14.68
2019-04-27T21:33:23.888Z,14.67
2019-04-27T21:35:54.016Z,14.67
2019-04-27T21:38:24.208Z,14.56
2019-04-27T21:40:54.319Z,14.58
2019-04-27T21:43:26.640Z,14.56
2019-04-27T21:45:56.775Z,14.55
2019-04-27T21:48:28.329Z,14.54
2019-04-27T21:50:58.350Z,14.54
2019-04-27T21:53:51.530Z,14.54
2019-04-27T21:56:21.567Z,14.54
2019-04-27T21:58:51.690Z,14.53
2019-04-27T22:01:38.792Z,14.52
2019-04-27T22:04:11.441Z,14.53
2019-04-27T22:06:42.195Z,14.51
2019-04-27T22:09:15.362Z,14.49
2019-04-27T22:11:45.582Z,14.48
2019-04-27T22:14:15.633Z,14.49
2019-04-27T22:16:46.659Z,14.49
2019-04-27T22:19:16.751Z,14.48
2019-04-27T22:21:46.827Z,14.51
2019-04-27T22:24:25.221Z,14.52
2019-04-27T22:26:55.279Z,14.53
2019-04-27T22:29:25.346Z,14.54
2019-04-27T22:31:55.700Z,14.54
2019-04-27T22:34:25.778Z,14.54
2019-04-27T22:36:55.829Z,14.55
2019-04-27T22:39:41.351Z,14.55
2019-04-27T22:42:28.781Z,14.55
2019-04-27T22:45:20.533Z,14.50
2019-04-27T22:47:51.697Z,14.49
2019-04-27T22:50:21.795Z,14.55
2019-04-27T22:52:51.849Z,14.56
2019-04-27T22:55:22.110Z,14.55
2019-04-27T22:57:57.196Z,14.25
2019-04-27T23:00:51.179Z,14.45
2019-04-27T23:03:27.656Z,14.48
2019-04-27T23:05:57.752Z,14.45
2019-04-27T23:08:27.817Z,14.43
2019-04-27T23:10:57.998Z,14.41
2019-04-27T23:13:28.032Z,14.38
2019-04-27T23:16:01.460Z,14.37
2019-04-27T23:18:31.671Z,14.35
2019-04-27T23:21:01.706Z,14.39
2019-04-27T23:23:31.733Z,14.38
2019-04-27T23:26:01.955Z,14.32
2019-04-27T23:28:31.988Z,14.34
2019-04-27T23:31:10.951Z,14.20
2019-04-27T23:33:43.906Z,14.27
2019-04-27T23:36:13.926Z,14.32
2019-04-27T23:38:44.030Z,14.27
2019-04-27T23:41:14.818Z,14.29
2019-04-27T23:43:44.876Z,14.27
2019-04-27T23:46:14.890Z,14.24
2019-04-27T23:48:44.950Z,14.22
2019-04-27T23:51:33.923Z,14.29
2019-04-27T23:54:03.965Z,14.30
2019-04-27T23:56:33.990Z,14.34
2019-04-27T23:59:04.112Z,14.37
